createdAt,value
2018-09-10T00:00:33.324Z,86.54
2018-09-10T00:01:43.444Z,86.54
2018-09-10T00:02:52.748Z,86.35
2018-09-10T00:04:02.322Z,86.31
2018-09-10T00:05:11.623Z,86.35
2018-09-10T00:06:21.462Z,86.54
2018-09-10T00:07:31.309Z,86.69
2018-09-10T00:08:40.341Z,86.64
2018-09-10T00:09:49.643Z,86.64
2018-09-10T00:10:59.751Z,86.74
2018-09-10T00:12:09.596Z,86.54
2018-09-10T00:13:19.173Z,87.02
2018-09-10T00:14:29.025Z,86.54
2018-09-10T00:15:38.866Z,86.25
2018-09-10T00:16:48.432Z,86.35
2018-09-10T00:17:58.002Z,86.35
2018-09-10T00:19:07.861Z,86.35
2018-09-10T00:20:17.706Z,86.45
2018-09-10T00:21:27.548Z,86.64
2018-09-10T00:22:37.125Z,86.35
2018-09-10T00:23:46.971Z,86.74
2018-09-10T00:24:56.573Z,86.45
2018-09-10T00:26:05.880Z,87.12
2018-09-10T00:27:15.462Z,86.93
2018-09-10T00:28:25.306Z,87.02
2018-09-10T00:29:34.877Z,86.74
2018-09-10T00:30:44.722Z,86.74
2018-09-10T00:31:54.024Z,86.93
2018-09-10T00:33:03.600Z,86.54
2018-09-10T00:34:13.716Z,87.02
2018-09-10T00:35:23.834Z,87.12
2018-09-10T00:36:33.139Z,87.31
2018-09-10T00:37:42.722Z,87.41
2018-09-10T00:38:52.321Z,87.21
2018-09-10T00:40:01.894Z,87.41
2018-09-10T00:41:11.467Z,87.12
2018-09-10T00:42:21.045Z,87.02
2018-09-10T00:43:30.073Z,87.31
2018-09-10T00:44:39.650Z,86.54
2018-09-10T00:45:49.823Z,87.12
2018-09-10T00:46:59.667Z,86.74
2018-09-10T00:48:09.511Z,87.21
2018-09-10T00:49:19.627Z,87.79
2018-09-10T00:50:29.203Z,86.74
2018-09-10T00:51:39.046Z,86.64
2018-09-10T00:52:49.190Z,87.21
2018-09-10T00:53:58.765Z,86.74
2018-09-10T00:55:08.883Z,86.45
2018-09-10T00:56:18.724Z,86.64
2018-09-10T00:57:28.566Z,86.83
2018-09-10T00:58:37.870Z,87.02
2018-09-10T00:59:47.716Z,86.45
2018-09-10T01:00:57.835Z,87.12
2018-09-10T01:02:07.409Z,86.83
2018-09-10T01:03:17.255Z,86.45
2018-09-10T01:04:26.830Z,87.02
2018-09-10T01:05:36.407Z,86.54
2018-09-10T01:06:46.528Z,86.54
2018-09-10T01:07:56.374Z,86.54
2018-09-10T01:09:05.946Z,86.54
2018-09-10T01:10:15.790Z,86.54
2018-09-10T01:11:25.842Z,86.64
2018-09-10T01:12:35.419Z,86.25
2018-09-10T01:13:45.289Z,86.54
2018-09-10T01:14:55.182Z,86.35
2018-09-10T01:16:05.034Z,86.64
2018-09-10T01:17:15.170Z,86.45
2018-09-10T01:18:24.736Z,86.35
2018-09-10T01:19:34.315Z,86.45
2018-09-10T01:20:44.163Z,86.5
2018-09-10T01:21:53.736Z,86.69
2018-09-10T01:23:03.857Z,86.54
2018-09-10T01:24:13.700Z,86.74
2018-09-10T01:25:23.536Z,86.6
2018-09-10T01:26:33.105Z,86.21
2018-09-10T01:27:42.946Z,86.45
2018-09-10T01:28:52.786Z,86.12
2018-09-10T01:30:02.362Z,86.69
2018-09-10T01:31:11.667Z,86.5
2018-09-10T01:32:20.969Z,86.41
2018-09-10T01:33:30.270Z,86.5
2018-09-10T01:34:40.383Z,86.02
2018-09-10T01:35:49.952Z,86.31
2018-09-10T01:36:59.529Z,86.5
2018-09-10T01:38:09.419Z,86.12
2018-09-10T01:39:19.542Z,86.41
2018-09-10T01:40:29.652Z,86.41
2018-09-10T01:41:38.952Z,86.41
2018-09-10T01:42:48.797Z,86.41
2018-09-10T01:43:58.373Z,86.5
2018-09-10T01:45:07.970Z,86.5
2018-09-10T01:46:18.087Z,86.31
2018-09-10T01:47:27.666Z,86.41
2018-09-10T01:48:37.516Z,86.31
2018-09-10T01:49:47.090Z,86.5
2018-09-10T01:50:56.406Z,86.12
2018-09-10T01:52:05.983Z,86.5
2018-09-10T01:53:16.105Z,86.12
2018-09-10T01:54:26.217Z,86.41
2018-09-10T01:55:36.077Z,86.41
2018-09-10T01:56:45.924Z,86.6
2018-09-10T01:57:56.050Z,86.31
2018-09-10T01:59:06.147Z,86.31
2018-09-10T02:00:16.263Z,86.41
2018-09-10T02:01:25.933Z,86.5
2018-09-10T02:02:35.782Z,86.41
2018-09-10T02:03:45.629Z,86.5
2018-09-10T02:04:55.744Z,86.6
2018-09-10T02:06:05.051Z,86.69
2018-09-10T02:07:14.621Z,86.6
2018-09-10T02:08:24.488Z,86.69
2018-09-10T02:09:33.798Z,86.31
2018-09-10T02:10:43.099Z,86.16
2018-09-10T02:11:52.668Z,86.5
2018-09-10T02:13:02.779Z,86.69
2018-09-10T02:14:12.891Z,86.41
2018-09-10T02:15:22.737Z,86.5
2018-09-10T02:16:32.573Z,86.6
2018-09-10T02:17:42.153Z,86.6
2018-09-10T02:18:51.731Z,86.54
2018-09-10T02:20:01.305Z,86.74
2018-09-10T02:21:10.340Z,86.54
2018-09-10T02:22:20.192Z,86.54
2018-09-10T02:23:29.824Z,86.45
2018-09-10T02:24:39.505Z,86.45
2018-09-10T02:25:49.091Z,86.64
2018-09-10T02:26:58.931Z,86.64
2018-09-10T02:28:08.502Z,87.02
2018-09-10T02:29:18.935Z,86.64
2018-09-10T02:30:29.204Z,86.64
2018-09-10T02:31:39.073Z,87.02
2018-09-10T02:32:48.929Z,86.83
2018-09-10T02:33:59.070Z,86.74
2018-09-10T02:35:09.194Z,86.83
2018-09-10T02:36:18.803Z,86.64
2018-09-10T02:37:28.388Z,86.64
2018-09-10T02:38:38.737Z,86.74
2018-09-10T02:39:49.053Z,86.83
2018-09-10T02:40:58.835Z,87.21
2018-09-10T02:42:08.426Z,87.41
2018-09-10T02:43:18.554Z,87.12
2018-09-10T02:44:28.132Z,87.5
2018-09-10T02:45:37.975Z,87.02
2018-09-10T02:46:47.013Z,87.21
2018-09-10T02:47:56.319Z,87.6
2018-09-10T02:49:05.912Z,86.74
2018-09-10T02:50:15.490Z,87.41
2018-09-10T02:51:25.340Z,87.41
2018-09-10T02:52:35.459Z,87.5
2018-09-10T02:53:45.034Z,87.21
2018-09-10T02:54:54.883Z,87.21
2018-09-10T02:56:04.971Z,87.21
2018-09-10T02:57:13.744Z,87.79
2018-09-10T02:58:23.867Z,87.7
2018-09-10T02:59:33.717Z,87.5
2018-09-10T03:00:43.836Z,87.79
2018-09-10T03:01:53.685Z,87.02
2018-09-10T03:03:03.268Z,88.27
2018-09-10T03:04:13.114Z,87.6
2018-09-10T03:05:22.963Z,87.21
2018-09-10T03:06:32.813Z,87.5
2018-09-10T03:07:42.665Z,87.5
2018-09-10T03:08:51.965Z,88.08
2018-09-10T03:10:01.539Z,87.7
2018-09-10T03:11:11.388Z,86.64
2018-09-10T03:12:21.533Z,87.5
2018-09-10T03:13:31.390Z,87.12
2018-09-10T03:14:41.238Z,87.7
2018-09-10T03:15:50.807Z,87.5
2018-09-10T03:17:00.709Z,87.6
2018-09-10T03:18:10.556Z,87.31
2018-09-10T03:19:20.136Z,87.21
2018-09-10T03:20:29.982Z,87.31
2018-09-10T03:21:40.107Z,87.6
2018-09-10T03:22:50.219Z,87.7
2018-09-10T03:24:00.230Z,87.7
2018-09-10T03:25:10.671Z,87.31
2018-09-10T03:26:20.782Z,87.5
2018-09-10T03:27:30.357Z,87.6
2018-09-10T03:28:39.934Z,87.6
2018-09-10T03:29:49.237Z,87.21
2018-09-10T03:30:59.354Z,87.12
2018-09-10T03:32:09.485Z,87.6
2018-09-10T03:33:19.352Z,87.5
2018-09-10T03:34:29.309Z,87.31
2018-09-10T03:35:39.419Z,87.5
2018-09-10T03:36:49.539Z,88.08
2018-09-10T03:37:59.590Z,87.12
2018-09-10T03:39:09.701Z,87.6
2018-09-10T03:40:19.281Z,87.21
2018-09-10T03:41:28.858Z,87.21
2018-09-10T03:42:39.011Z,87.6
2018-09-10T03:43:48.047Z,87.5
2018-09-10T03:44:57.897Z,87.7
2018-09-10T03:46:06.939Z,87.12
2018-09-10T03:47:16.930Z,87.88
2018-09-10T03:48:27.131Z,87.21
2018-09-10T03:49:36.982Z,87.31
2018-09-10T03:50:46.832Z,87.41
2018-09-10T03:51:56.721Z,88.17
2018-09-10T03:53:06.305Z,87.7
2018-09-10T03:54:16.157Z,87.41
2018-09-10T03:55:26.002Z,87.7
2018-09-10T03:56:35.857Z,87.5
2018-09-10T03:57:45.704Z,87.7
2018-09-10T03:58:55.545Z,87.7
2018-09-10T04:00:04.584Z,87.6
2018-09-10T04:01:14.451Z,87.88
2018-09-10T04:02:24.298Z,87.98
2018-09-10T04:03:34.418Z,87.41
2018-09-10T04:04:43.180Z,88.12
2018-09-10T04:05:53.027Z,87.98
2018-09-10T04:07:02.597Z,87.98
2018-09-10T04:08:12.447Z,88.37
2018-09-10T04:09:22.028Z,88.08
2018-09-10T04:10:31.601Z,88.27
2018-09-10T04:11:41.473Z,88.08
2018-09-10T04:12:51.047Z,88.17
2018-09-10T04:14:00.614Z,88.08
2018-09-10T04:15:10.232Z,88.12
2018-09-10T04:16:20.071Z,88.22
2018-09-10T04:17:29.379Z,88.22
2018-09-10T04:18:39.221Z,88.17
2018-09-10T04:19:49.341Z,88.37
2018-09-10T04:20:59.459Z,88.08
2018-09-10T04:22:09.313Z,87.98
2018-09-10T04:23:19.172Z,88.17
2018-09-10T04:24:28.746Z,88.17
2018-09-10T04:25:38.860Z,87.93
2018-09-10T04:26:48.734Z,88.17
2018-09-10T04:27:58.048Z,88.51
2018-09-10T04:29:07.621Z,88.27
2018-09-10T04:30:17.206Z,88.37
2018-09-10T04:31:27.056Z,88.17
2018-09-10T04:32:36.356Z,88.27
2018-09-10T04:33:45.926Z,88.37
2018-09-10T04:34:55.502Z,88.27
2018-09-10T04:36:05.437Z,88.37
2018-09-10T04:37:15.613Z,88.27
2018-09-10T04:38:25.512Z,88.37
2018-09-10T04:39:35.086Z,88.08
2018-09-10T04:40:44.668Z,88.94
2018-09-10T04:41:54.787Z,88.75
2018-09-10T04:43:04.632Z,88.75
2018-09-10T04:44:14.485Z,88.27
2018-09-10T04:45:24.597Z,87.98
2018-09-10T04:46:34.440Z,87.98
2018-09-10T04:47:44.014Z,88.84
2018-09-10T04:48:53.905Z,88.65
2018-09-10T04:50:03.548Z,88.37
2018-09-10T04:51:12.856Z,88.75
2018-09-10T04:52:22.437Z,88.94
2018-09-10T04:53:32.018Z,88.75
2018-09-10T04:54:41.931Z,88.56
2018-09-10T04:55:51.842Z,88.75
2018-09-10T04:57:01.922Z,88.27
2018-09-10T04:58:11.583Z,88.75
2018-09-10T04:59:21.723Z,89.04
2018-09-10T05:00:31.862Z,88.56
2018-09-10T05:01:41.485Z,89.51
2018-09-10T05:02:51.063Z,88.75
2018-09-10T05:04:00.930Z,88.94
2018-09-10T05:05:11.045Z,88.46
2018-09-10T05:06:20.357Z,89.04
2018-09-10T05:07:30.209Z,88.75
2018-09-10T05:08:40.057Z,88.94
2018-09-10T05:09:49.375Z,89.04
2018-09-10T05:10:59.766Z,88.56
2018-09-10T05:12:09.340Z,88.84
2018-09-10T05:13:19.191Z,88.94
2018-09-10T05:14:28.770Z,88.56
2018-09-10T05:15:38.615Z,88.75
2018-09-10T05:16:47.919Z,88.46
2018-09-10T05:17:57.763Z,89.04
2018-09-10T05:19:07.348Z,88.65
2018-09-10T05:20:17.477Z,88.84
2018-09-10T05:21:26.778Z,88.37
2018-09-10T05:22:36.668Z,89.13
2018-09-10T05:23:46.787Z,88.75
2018-09-10T05:24:56.905Z,88.94
2018-09-10T05:26:06.211Z,88.56
2018-09-10T05:27:16.055Z,88.56
2018-09-10T05:28:25.630Z,88.94
2018-09-10T05:29:35.792Z,89.04
2018-09-10T05:30:45.638Z,88.84
2018-09-10T05:31:55.759Z,88.75
2018-09-10T05:33:05.600Z,87.79
2018-09-10T05:34:15.187Z,87.98
2018-09-10T05:35:24.766Z,87.98
2018-09-10T05:36:34.076Z,88.27
2018-09-10T05:37:44.210Z,88.17
2018-09-10T05:38:53.797Z,88.46
2018-09-10T05:40:03.640Z,88.27
2018-09-10T05:41:12.945Z,87.98
2018-09-10T05:42:22.526Z,88.37
2018-09-10T05:43:32.110Z,87.88
2018-09-10T05:44:41.951Z,88.46
2018-09-10T05:45:51.525Z,88.08
2018-09-10T05:47:01.140Z,88.08
2018-09-10T05:48:10.991Z,88.37
2018-09-10T05:49:21.235Z,88.37
2018-09-10T05:50:31.081Z,88.08
2018-09-10T05:51:40.935Z,88.27
2018-09-10T05:52:51.060Z,88.37
2018-09-10T05:54:00.903Z,88.56
2018-09-10T05:55:10.756Z,87.98
2018-09-10T05:56:20.609Z,88.41
2018-09-10T05:57:30.188Z,88.17
2018-09-10T05:58:39.765Z,88.17
2018-09-10T05:59:49.068Z,88.37
2018-09-10T06:00:58.910Z,88.17
2018-09-10T06:02:08.544Z,88.27
2018-09-10T06:03:18.395Z,88.27
2018-09-10T06:04:28.529Z,87.98
2018-09-10T06:05:38.382Z,88.46
2018-09-10T06:06:48.025Z,87.88
2018-09-10T06:07:58.121Z,88.12
2018-09-10T06:09:08.451Z,88.22
2018-09-10T06:10:18.357Z,88.37
2018-09-10T06:11:28.440Z,88.27
2018-09-10T06:12:38.284Z,88.41
2018-09-10T06:13:47.865Z,88.41
2018-09-10T06:14:57.473Z,88.31
2018-09-10T06:16:07.291Z,88.22
2018-09-10T06:17:17.408Z,88.31
2018-09-10T06:18:27.251Z,88.31
2018-09-10T06:19:37.100Z,88.6
2018-09-10T06:20:46.945Z,88.22
2018-09-10T06:21:56.255Z,88.22
2018-09-10T06:23:06.376Z,88.02
2018-09-10T06:24:16.521Z,88.22
2018-09-10T06:25:26.094Z,88.6
2018-09-10T06:26:35.939Z,88.41
2018-09-10T06:27:45.787Z,88.02
2018-09-10T06:28:55.362Z,88.79
2018-09-10T06:30:04.936Z,88.02
2018-09-10T06:31:15.228Z,88.12
2018-09-10T06:32:25.343Z,88.12
2018-09-10T06:33:34.652Z,88.12
2018-09-10T06:34:43.956Z,88.22
2018-09-10T06:35:53.805Z,88.02
2018-09-10T06:37:03.526Z,88.12
2018-09-10T06:38:13.924Z,88.31
2018-09-10T06:39:24.040Z,88.22
2018-09-10T06:40:33.879Z,88.6
2018-09-10T06:41:43.716Z,88.98
2018-09-10T06:42:53.556Z,88.22
2018-09-10T06:44:02.913Z,88.12
2018-09-10T06:45:13.030Z,88.51
2018-09-10T06:46:22.604Z,88.12
2018-09-10T06:47:32.182Z,88.22
2018-09-10T06:48:41.295Z,88.22
2018-09-10T06:49:50.880Z,88.02
2018-09-10T06:51:00.722Z,88.12
2018-09-10T06:52:10.563Z,88.51
2018-09-10T06:53:20.441Z,87.93
2018-09-10T06:54:30.293Z,88.31
2018-09-10T06:55:40.420Z,87.93
2018-09-10T06:56:50.270Z,88.45
2018-09-10T06:58:00.383Z,88.31
2018-09-10T06:59:10.498Z,88.55
2018-09-10T07:00:20.469Z,88.35
2018-09-10T07:01:30.246Z,88.26
2018-09-10T07:02:40.093Z,88.35
2018-09-10T07:03:49.667Z,88.45
2018-09-10T07:04:59.513Z,88.45
2018-09-10T07:06:09.364Z,88.26
2018-09-10T07:07:19.058Z,88.02
2018-09-10T07:08:28.903Z,88.35
2018-09-10T07:09:38.752Z,88.45
2018-09-10T07:10:48.873Z,88.45
2018-09-10T07:11:58.446Z,87.98
2018-09-10T07:13:08.463Z,88.07
2018-09-10T07:14:18.960Z,88.45
2018-09-10T07:15:28.533Z,87.98
2018-09-10T07:16:38.407Z,88.17
2018-09-10T07:17:47.978Z,88.26
2018-09-10T07:18:57.384Z,87.88
2018-09-10T07:20:07.816Z,87.88
2018-09-10T07:21:17.654Z,88.07
2018-09-10T07:22:27.228Z,87.98
2018-09-10T07:23:36.802Z,88.17
2018-09-10T07:24:46.647Z,87.98
2018-09-10T07:25:56.494Z,87.88
2018-09-10T07:27:06.390Z,87.98
2018-09-10T07:28:15.694Z,88.07
2018-09-10T07:29:25.316Z,88.26
2018-09-10T07:30:34.884Z,87.3
2018-09-10T07:31:44.998Z,87.59
2018-09-10T07:32:54.853Z,87.49
2018-09-10T07:34:04.965Z,87.59
2018-09-10T07:35:14.539Z,87.21
2018-09-10T07:36:24.381Z,87.3
2018-09-10T07:37:34.249Z,87.49
2018-09-10T07:38:43.559Z,87.21
2018-09-10T07:39:53.404Z,87.3
2018-09-10T07:41:02.974Z,87.11
2018-09-10T07:42:12.814Z,87.49
2018-09-10T07:43:22.749Z,86.92
2018-09-10T07:44:32.411Z,86.54
2018-09-10T07:45:42.263Z,87.15
2018-09-10T07:46:52.154Z,86.68
2018-09-10T07:48:02.270Z,86.38
2018-09-10T07:49:12.128Z,86.68
2018-09-10T07:50:21.824Z,86.58
2018-09-10T07:51:32.080Z,86.68
2018-09-10T07:52:41.705Z,86.29
2018-09-10T07:53:51.278Z,86.38
2018-09-10T07:55:01.127Z,85.91
2018-09-10T07:56:10.706Z,85.81
2018-09-10T07:57:20.021Z,85.33
2018-09-10T07:58:29.871Z,85.52
2018-09-10T07:59:39.727Z,85.42
2018-09-10T08:00:49.034Z,85.62
2018-09-10T08:01:59.042Z,85.42
2018-09-10T08:03:09.297Z,85.33
2018-09-10T08:04:19.173Z,85.04
2018-09-10T08:05:28.474Z,84.51
2018-09-10T08:06:38.048Z,84.89
2018-09-10T08:07:48.168Z,84.31
2018-09-10T08:08:58.026Z,84.41
2018-09-10T08:10:07.734Z,84.03
2018-09-10T08:11:17.306Z,84.41
2018-09-10T08:12:27.201Z,83.54
2018-09-10T08:13:36.783Z,83.74
2018-09-10T08:14:46.673Z,84.03
2018-09-10T08:15:56.789Z,83.87
2018-09-10T08:17:06.634Z,83.74
2018-09-10T08:18:16.480Z,83.69
2018-09-10T08:19:25.785Z,83.59
2018-09-10T08:20:35.358Z,83.69
2018-09-10T08:21:45.475Z,83.87
2018-09-10T08:22:55.053Z,84.07
2018-09-10T08:24:04.956Z,83.59
2018-09-10T08:25:14.902Z,83.87
2018-09-10T08:26:25.119Z,83.01
2018-09-10T08:27:34.981Z,83.2
2018-09-10T08:28:44.832Z,83.4
2018-09-10T08:29:54.949Z,83.2
2018-09-10T08:31:04.528Z,83.01
2018-09-10T08:32:14.103Z,82.63
2018-09-10T08:33:23.684Z,82.53
2018-09-10T08:34:33.254Z,82.82
2018-09-10T08:35:43.303Z,82.15
2018-09-10T08:36:52.915Z,82.63
2018-09-10T08:38:02.494Z,81.86
2018-09-10T08:39:12.339Z,81.86
2018-09-10T08:40:22.458Z,81.86
2018-09-10T08:41:32.312Z,81.48
2018-09-10T08:42:42.221Z,81.42
2018-09-10T08:43:52.336Z,81.42
2018-09-10T08:45:01.425Z,81.42
2018-09-10T08:46:11.036Z,80.94
2018-09-10T08:47:21.165Z,81.32
2018-09-10T08:48:31.022Z,80.65
2018-09-10T08:49:40.609Z,80.75
2018-09-10T08:50:49.913Z,80.36
2018-09-10T08:51:59.485Z,80.27
2018-09-10T08:53:09.094Z,80.46
2018-09-10T08:54:18.941Z,80.36
2018-09-10T08:55:30.164Z,80.17
2018-09-10T08:56:40.792Z,80.27
2018-09-10T08:57:50.372Z,79.88
2018-09-10T08:59:00.219Z,80.27
2018-09-10T09:00:09.878Z,80.02
2018-09-10T09:01:20.212Z,79.63
2018-09-10T09:02:29.784Z,79.44
2018-09-10T09:03:39.908Z,80.21
2018-09-10T09:04:50.029Z,80.21
2018-09-10T09:06:00.067Z,80.11
2018-09-10T09:07:10.253Z,79.82
2018-09-10T09:08:20.093Z,80.02
2018-09-10T09:09:30.222Z,80.02
2018-09-10T09:10:39.798Z,80.11
2018-09-10T09:11:49.643Z,80.4
2018-09-10T09:12:59.492Z,79.35
2018-09-10T09:14:09.072Z,80.3
2018-09-10T09:15:18.931Z,80.35
2018-09-10T09:16:29.048Z,80.3
2018-09-10T09:17:38.897Z,80.44
2018-09-10T09:18:48.765Z,80.25
2018-09-10T09:19:58.348Z,80.35
2018-09-10T09:21:07.924Z,80.06
2018-09-10T09:22:17.767Z,80.54
2018-09-10T09:23:27.391Z,79.96
2018-09-10T09:24:37.453Z,79.96
2018-09-10T09:25:46.754Z,80.15
2018-09-10T09:26:56.874Z,80.63
2018-09-10T09:28:06.717Z,80.15
2018-09-10T09:29:16.595Z,80.63
2018-09-10T09:30:26.174Z,80.63
2018-09-10T09:31:35.510Z,80.73
2018-09-10T09:32:45.089Z,80.44
2018-09-10T09:33:54.665Z,80.44
2018-09-10T09:35:03.976Z,81.21
2018-09-10T09:36:14.026Z,81.12
2018-09-10T09:37:23.726Z,81.02
2018-09-10T09:38:33.584Z,81.21
2018-09-10T09:39:43.480Z,81.3
2018-09-10T09:40:53.051Z,81.25
2018-09-10T09:42:02.901Z,81.02
2018-09-10T09:43:12.704Z,81.06
2018-09-10T09:44:22.606Z,81.35
2018-09-10T09:45:32.438Z,81.6
2018-09-10T09:46:42.566Z,81.35
2018-09-10T09:47:52.682Z,81.6
2018-09-10T09:49:02.262Z,81.63
2018-09-10T09:50:12.101Z,82.27
2018-09-10T09:51:21.842Z,81.98
2018-09-10T09:52:31.175Z,81.79
2018-09-10T09:53:40.748Z,81.7
2018-09-10T09:54:50.868Z,81.79
2018-09-10T09:56:00.447Z,81.4
2018-09-10T09:57:10.364Z,81.98
2018-09-10T09:58:19.936Z,81.7
2018-09-10T09:59:29.515Z,81.79
2018-09-10T10:00:39.414Z,81.79
2018-09-10T10:01:48.994Z,81.7
2018-09-10T10:02:59.084Z,81.83
2018-09-10T10:04:08.494Z,81.93
2018-09-10T10:05:18.993Z,82.41
2018-09-10T10:06:29.115Z,82.41
2018-09-10T10:07:38.968Z,82.83
2018-09-10T10:08:48.551Z,83.66
2018-09-10T10:09:58.700Z,83.08
2018-09-10T10:11:08.694Z,83.28
2018-09-10T10:12:19.540Z,83.47
2018-09-10T10:13:30.527Z,83.28
2018-09-10T10:14:40.400Z,83.61
2018-09-10T10:15:49.708Z,83.22
2018-09-10T10:16:59.288Z,83.7
2018-09-10T10:18:08.644Z,83.61
2018-09-10T10:19:17.953Z,83.51
2018-09-10T10:20:27.541Z,84.66
2018-09-10T10:21:37.389Z,84.09
2018-09-10T10:22:46.705Z,83.8
2018-09-10T10:23:56.552Z,83.8
2018-09-10T10:25:06.679Z,84.8
2018-09-10T10:26:16.259Z,85.57
2018-09-10T10:27:25.827Z,84.95
2018-09-10T10:28:35.135Z,84.95
2018-09-10T10:29:44.993Z,84.76
2018-09-10T10:30:54.847Z,85.47
2018-09-10T10:32:03.878Z,84.9
2018-09-10T10:33:13.724Z,85.72
2018-09-10T10:34:23.302Z,85.57
2018-09-10T10:35:33.470Z,85.19
2018-09-10T10:36:43.053Z,85.57
2018-09-10T10:37:52.630Z,85.38
2018-09-10T10:39:01.935Z,86.15
2018-09-10T10:40:11.842Z,85.57
2018-09-10T10:41:21.696Z,86.44
2018-09-10T10:42:31.276Z,86.15
2018-09-10T10:43:41.398Z,86.44
2018-09-10T10:44:51.513Z,87.5
2018-09-10T10:46:00.575Z,86.44
2018-09-10T10:47:10.431Z,86.92
2018-09-10T10:48:20.040Z,87.06
2018-09-10T10:49:29.641Z,87.06
2018-09-10T10:50:39.553Z,87.45
2018-09-10T10:51:49.134Z,87.45
2018-09-10T10:52:58.708Z,87.45
2018-09-10T10:54:08.827Z,87.74
2018-09-10T10:55:18.677Z,87.26
2018-09-10T10:56:28.538Z,87.74
2018-09-10T10:57:38.661Z,87.64
2018-09-10T10:58:48.779Z,87.83
2018-09-10T10:59:58.624Z,88.51
2018-09-10T11:01:08.212Z,88.99
2018-09-10T11:02:18.059Z,88.89
2018-09-10T11:03:27.638Z,88.79
2018-09-10T11:04:37.539Z,88.31
2018-09-10T11:05:47.390Z,87.45
2018-09-10T11:06:57.239Z,88.02
2018-09-10T11:08:06.815Z,87.64
2018-09-10T11:09:16.395Z,87.35
2018-09-10T11:10:26.572Z,87.4
2018-09-10T11:11:36.159Z,87.45
2018-09-10T11:12:46.040Z,88.02
2018-09-10T11:13:56.164Z,87.93
2018-09-10T11:15:05.745Z,87.93
2018-09-10T11:16:14.790Z,87.83
2018-09-10T11:17:24.630Z,88.12
2018-09-10T11:18:34.750Z,88.02
2018-09-10T11:19:44.596Z,88.02
2018-09-10T11:20:54.475Z,88.51
2018-09-10T11:22:04.052Z,88.7
2018-09-10T11:23:14.226Z,87.64
2018-09-10T11:24:24.351Z,88.6
2018-09-10T11:25:34.475Z,88.12
2018-09-10T11:26:43.783Z,88.22
2018-09-10T11:27:53.389Z,88.41
2018-09-10T11:29:02.406Z,89.28
2018-09-10T11:30:11.711Z,88.07
2018-09-10T11:31:21.287Z,88.55
2018-09-10T11:32:30.599Z,88.17
2018-09-10T11:33:40.448Z,89.13
2018-09-10T11:34:50.664Z,88.45
2018-09-10T11:36:00.509Z,88.55
2018-09-10T11:37:10.625Z,87.68
2018-09-10T11:38:20.673Z,87.4
2018-09-10T11:39:29.979Z,87.44
2018-09-10T11:40:39.561Z,87.88
2018-09-10T11:41:49.688Z,87.63
2018-09-10T11:42:59.269Z,88.26
2018-09-10T11:44:08.849Z,88.07
2018-09-10T11:45:18.961Z,88.26
2018-09-10T11:46:28.580Z,88.84
2018-09-10T11:47:38.453Z,88.45
2018-09-10T11:48:47.490Z,88.36
2018-09-10T11:49:57.066Z,88.84
2018-09-10T11:51:06.644Z,88.75
2018-09-10T11:52:16.282Z,88.93
2018-09-10T11:53:26.509Z,88.36
2018-09-10T11:54:36.360Z,88.17
2018-09-10T11:55:46.533Z,88.36
2018-09-10T11:56:56.585Z,88.07
2018-09-10T11:58:06.438Z,88.26
2018-09-10T11:59:15.751Z,88.17
2018-09-10T12:00:25.614Z,87.88
2018-09-10T12:01:35.824Z,88.45
2018-09-10T12:02:45.731Z,88.36
2018-09-10T12:03:55.114Z,88.26
2018-09-10T12:05:04.959Z,88.93
2018-09-10T12:06:14.554Z,88.93
2018-09-10T12:07:23.859Z,88.65
2018-09-10T12:08:33.445Z,88.41
2018-09-10T12:09:43.304Z,88.07
2018-09-10T12:10:53.426Z,88.84
2018-09-10T12:12:02.735Z,88.93
2018-09-10T12:13:12.865Z,88.65
2018-09-10T12:14:22.988Z,89.03
2018-09-10T12:15:32.836Z,88.84
2018-09-10T12:16:42.420Z,88.84
2018-09-10T12:17:52.468Z,88.65
2018-09-10T12:19:02.088Z,89.23
2018-09-10T12:20:11.405Z,89.13
2018-09-10T12:21:21.583Z,88.55
2018-09-10T12:22:31.511Z,89.61
2018-09-10T12:23:41.631Z,89.51
2018-09-10T12:24:51.209Z,89.32
2018-09-10T12:26:00.783Z,89.13
2018-09-10T12:27:10.090Z,89.13
2018-09-10T12:28:19.666Z,88.93
2018-09-10T12:29:29.791Z,88.93
2018-09-10T12:30:39.155Z,88.65
2018-09-10T12:31:49.275Z,89.03
2018-09-10T12:32:58.586Z,89.13
2018-09-10T12:34:07.628Z,89.51
2018-09-10T12:35:17.206Z,89.32
2018-09-10T12:36:27.056Z,89.32
2018-09-10T12:37:36.901Z,88.84
2018-09-10T12:38:46.753Z,89.42
2018-09-10T12:39:56.608Z,90.24
2018-09-10T12:41:05.648Z,89.47
2018-09-10T12:42:15.222Z,89.09
2018-09-10T12:43:25.344Z,90.15
2018-09-10T12:44:34.922Z,90.09
2018-09-10T12:45:44.771Z,90
2018-09-10T12:46:54.625Z,89.81
2018-09-10T12:48:04.210Z,90
2018-09-10T12:49:13.791Z,89.51
2018-09-10T12:50:23.640Z,89.42
2018-09-10T12:51:32.949Z,88.89
2018-09-10T12:52:43.108Z,89.57
2018-09-10T12:53:52.680Z,89.09
2018-09-10T12:55:01.994Z,88.65
2018-09-10T12:56:12.117Z,89.32
2018-09-10T12:57:21.963Z,89.51
2018-09-10T12:58:31.540Z,89.42
2018-09-10T12:59:41.141Z,89.32
2018-09-10T13:00:50.988Z,89.03
2018-09-10T13:02:00.838Z,88.93
2018-09-10T13:03:10.423Z,89.13
2018-09-10T13:04:20.165Z,89.61
2018-09-10T13:05:29.796Z,89.81
2018-09-10T13:06:39.653Z,88.17
2018-09-10T13:07:48.961Z,87.97
2018-09-10T13:08:58.537Z,87.78
2018-09-10T13:10:08.110Z,88.22
2018-09-10T13:11:18.230Z,88.07
2018-09-10T13:12:28.342Z,87.78
2018-09-10T13:13:37.920Z,87.88
2018-09-10T13:14:47.774Z,87.59
2018-09-10T13:15:57.625Z,88.07
2018-09-10T13:17:07.553Z,87.4
2018-09-10T13:18:17.683Z,87.68
2018-09-10T13:19:27.531Z,87.59
2018-09-10T13:20:37.381Z,87.63
2018-09-10T13:21:46.683Z,87.24
2018-09-10T13:22:56.524Z,87.44
2018-09-10T13:24:06.639Z,87.05
2018-09-10T13:25:16.497Z,87.34
2018-09-10T13:26:26.617Z,87.53
2018-09-10T13:27:36.466Z,87.15
2018-09-10T13:28:46.054Z,87.82
2018-09-10T13:29:56.000Z,87.92
2018-09-10T13:31:05.856Z,87.34
2018-09-10T13:32:15.710Z,87.63
2018-09-10T13:33:25.836Z,86.66
2018-09-10T13:34:35.690Z,87.2
2018-09-10T13:35:45.279Z,87.3
2018-09-10T13:36:55.401Z,87.34
2018-09-10T13:38:05.255Z,88.31
2018-09-10T13:39:14.843Z,88.79
2018-09-10T13:40:24.972Z,88.65
2018-09-10T13:41:34.836Z,89.13
2018-09-10T13:42:44.694Z,89.42
2018-09-10T13:43:54.050Z,89.23
2018-09-10T13:45:03.957Z,90
2018-09-10T13:46:13.530Z,89.61
2018-09-10T13:47:23.116Z,90.19
2018-09-10T13:48:32.964Z,90
2018-09-10T13:49:43.075Z,89.81
2018-09-10T13:50:52.657Z,90.05
2018-09-10T13:52:01.962Z,90.24
2018-09-10T13:53:11.591Z,90.44
2018-09-10T13:54:21.733Z,90.24
2018-09-10T13:55:31.583Z,90.05
2018-09-10T13:56:41.706Z,90.24
2018-09-10T13:57:51.579Z,90.63
2018-09-10T13:59:01.471Z,90.44
2018-09-10T14:00:11.317Z,90.63
2018-09-10T14:01:20.982Z,90.05
2018-09-10T14:02:30.942Z,90.34
2018-09-10T14:03:40.785Z,89.67
2018-09-10T14:04:50.630Z,90.05
2018-09-10T14:05:59.933Z,90.24
2018-09-10T14:07:08.970Z,90.15
2018-09-10T14:08:18.813Z,89.95
2018-09-10T14:09:28.399Z,89.37
2018-09-10T14:10:38.627Z,89.95
2018-09-10T14:11:48.691Z,89.57
2018-09-10T14:12:58.015Z,89.95
2018-09-10T14:14:09.046Z,89.86
2018-09-10T14:15:18.919Z,89.18
2018-09-10T14:16:28.528Z,89.95
2018-09-10T14:17:37.834Z,88.79
2018-09-10T14:18:47.143Z,89.28
2018-09-10T14:19:56.728Z,89.09
2018-09-10T14:21:06.334Z,88.89
2018-09-10T14:22:15.929Z,88.41
2018-09-10T14:23:25.515Z,89.47
2018-09-10T14:24:35.103Z,89.37
2018-09-10T14:25:44.700Z,88.89
2018-09-10T14:26:54.016Z,89.62
2018-09-10T14:28:03.384Z,88.65
2018-09-10T14:29:12.706Z,88.27
2018-09-10T14:30:22.586Z,89.04
2018-09-10T14:31:32.452Z,89.33
2018-09-10T14:32:42.362Z,89.91
2018-09-10T14:33:52.579Z,89.23
2018-09-10T14:35:02.416Z,89.81
2018-09-10T14:36:12.625Z,89.23
2018-09-10T14:37:22.214Z,89.91
2018-09-10T14:38:31.801Z,89.14
2018-09-10T14:39:41.395Z,89.14
2018-09-10T14:40:51.553Z,89.81
2018-09-10T14:42:01.729Z,90
2018-09-10T14:43:11.492Z,89.14
2018-09-10T14:44:21.407Z,89.33
2018-09-10T14:45:31.561Z,89.43
2018-09-10T14:46:41.715Z,89.14
2018-09-10T14:47:51.858Z,90.1
2018-09-10T14:49:01.724Z,89.53
2018-09-10T14:50:11.597Z,89.14
2018-09-10T14:51:21.245Z,89.43
2018-09-10T14:52:30.287Z,89.33
2018-09-10T14:53:41.258Z,89.91
2018-09-10T14:54:51.685Z,89.33
2018-09-10T14:56:01.530Z,89.43
2018-09-10T14:57:11.384Z,89.33
2018-09-10T14:58:20.829Z,89.53
2018-09-10T14:59:31.109Z,89.14
2018-09-10T15:00:40.956Z,89.14
2018-09-10T15:01:50.265Z,89.33